createdAt,value
2018-07-30T00:00:58.127Z,1009.51
2018-07-30T00:01:58.129Z,1009.49
2018-07-30T00:02:58.129Z,1009.52
2018-07-30T00:03:58.127Z,1009.51
2018-07-30T00:04:58.133Z,1009.55
2018-07-30T00:05:58.137Z,1009.51
2018-07-30T00:06:58.138Z,1009.50
2018-07-30T00:07:58.136Z,1009.45
2018-07-30T00:08:58.139Z,1009.48
2018-07-30T00:09:58.141Z,1009.49
2018-07-30T00:10:58.143Z,1009.43
2018-07-30T00:11:58.150Z,1009.48
2018-07-30T00:12:58.152Z,1009.45
2018-07-30T00:13:58.155Z,1009.48
2018-07-30T00:14:58.155Z,1009.45
2018-07-30T00:15:58.153Z,1009.48
2018-07-30T00:16:58.156Z,1009.47
2018-07-30T00:17:58.158Z,1009.46
2018-07-30T00:18:58.158Z,1009.50
2018-07-30T00:19:58.166Z,1009.49
2018-07-30T00:20:58.168Z,1009.46
2018-07-30T00:21:58.165Z,1009.48
2018-07-30T00:22:58.167Z,1009.53
2018-07-30T00:23:58.174Z,1009.53
2018-07-30T00:24:58.178Z,1009.54
2018-07-30T00:25:58.179Z,1009.52
2018-07-30T00:26:58.180Z,1009.56
2018-07-30T00:27:58.179Z,1009.57
2018-07-30T00:28:58.179Z,1009.55
2018-07-30T00:29:58.181Z,1009.54
2018-07-30T00:30:58.184Z,1009.51
2018-07-30T00:31:58.189Z,1009.52
2018-07-30T00:32:58.192Z,1009.55
2018-07-30T00:33:58.193Z,1009.59
2018-07-30T00:34:58.194Z,1009.56
2018-07-30T00:35:58.192Z,1009.60
2018-07-30T00:36:58.194Z,1009.60
2018-07-30T00:37:58.204Z,1009.63
2018-07-30T00:38:58.208Z,1009.58
2018-07-30T00:39:58.204Z,1009.60
2018-07-30T00:40:58.204Z,1009.60
2018-07-30T00:41:58.205Z,1009.61
2018-07-30T00:42:58.210Z,1009.59
2018-07-30T00:43:58.212Z,1009.60
2018-07-30T00:44:58.215Z,1009.61
2018-07-30T00:45:58.216Z,1009.60
2018-07-30T00:46:58.221Z,1009.61
2018-07-30T00:47:58.215Z,1009.60
2018-07-30T00:48:58.216Z,1009.56
2018-07-30T00:49:58.217Z,1009.54
2018-07-30T00:50:58.219Z,1009.56
2018-07-30T00:51:58.225Z,1009.60
2018-07-30T00:52:58.228Z,1009.62
2018-07-30T00:53:58.224Z,1009.62
2018-07-30T00:54:58.281Z,1009.63
2018-07-30T00:55:58.236Z,1009.65
2018-07-30T00:56:58.284Z,1009.61
2018-07-30T00:57:58.236Z,1009.65
2018-07-30T00:58:58.238Z,1009.66
2018-07-30T00:59:58.236Z,1009.67
2018-07-30T01:00:58.236Z,1009.65
2018-07-30T01:01:58.239Z,1009.69
2018-07-30T01:02:58.239Z,1009.70
2018-07-30T01:03:58.245Z,1009.71
2018-07-30T01:04:58.247Z,1009.71
2018-07-30T01:05:58.249Z,1009.70
2018-07-30T01:06:58.250Z,1009.69
2018-07-30T01:07:58.252Z,1009.68
2018-07-30T01:08:58.250Z,1009.70
2018-07-30T01:09:58.259Z,1009.76
2018-07-30T01:10:58.258Z,1009.72
2018-07-30T01:11:58.255Z,1009.72
2018-07-30T01:12:58.255Z,1009.70
2018-07-30T01:13:58.257Z,1009.67
2018-07-30T01:14:58.258Z,1009.71
2018-07-30T01:15:58.264Z,1009.66
2018-07-30T01:16:58.267Z,1009.67
2018-07-30T01:17:58.268Z,1009.64
2018-07-30T01:18:58.270Z,1009.65
2018-07-30T01:19:58.266Z,1009.63
2018-07-30T01:20:58.271Z,1009.60
2018-07-30T01:21:58.273Z,1009.62
2018-07-30T01:22:58.273Z,1009.61
2018-07-30T01:23:58.276Z,1009.62
2018-07-30T01:24:58.279Z,1009.62
2018-07-30T01:25:58.279Z,1009.63
2018-07-30T01:26:58.276Z,1009.62
2018-07-30T01:27:58.284Z,1009.65
2018-07-30T01:28:58.285Z,1009.69
2018-07-30T01:29:58.285Z,1009.67
2018-07-30T01:30:58.287Z,1009.68
2018-07-30T01:31:58.284Z,1009.68
2018-07-30T01:32:58.285Z,1009.69
2018-07-30T01:33:58.288Z,1009.72
2018-07-30T01:34:58.287Z,1009.67
2018-07-30T01:35:58.295Z,1009.73
2018-07-30T01:36:58.295Z,1009.71
2018-07-30T01:37:58.299Z,1009.67
2018-07-30T01:38:58.300Z,1009.70
2018-07-30T01:39:58.295Z,1009.69
2018-07-30T01:40:58.296Z,1009.67
2018-07-30T01:41:58.302Z,1009.63
2018-07-30T01:42:58.306Z,1009.64
2018-07-30T01:43:58.301Z,1009.66
2018-07-30T01:44:58.301Z,1009.64
2018-07-30T01:45:58.302Z,1009.63
2018-07-30T01:46:58.307Z,1009.63
2018-07-30T01:47:58.309Z,1009.66
2018-07-30T01:48:58.311Z,1009.61
2018-07-30T01:49:58.311Z,1009.61
2018-07-30T01:50:58.311Z,1009.65
2018-07-30T01:51:58.309Z,1009.70
2018-07-30T01:52:58.310Z,1009.68
2018-07-30T01:53:58.312Z,1009.69
2018-07-30T01:54:58.314Z,1009.67
2018-07-30T01:55:58.318Z,1009.68
2018-07-30T01:56:58.321Z,1009.67
2018-07-30T01:57:58.317Z,1009.67
2018-07-30T01:58:58.318Z,1009.71
2018-07-30T01:59:58.324Z,1009.66
2018-07-30T02:00:58.325Z,1009.70
2018-07-30T02:01:58.325Z,1009.67
2018-07-30T02:02:58.325Z,1009.71
2018-07-30T02:03:58.326Z,1009.77
2018-07-30T02:04:58.325Z,1009.76
2018-07-30T02:05:58.324Z,1009.73
2018-07-30T02:06:58.324Z,1009.73
2018-07-30T02:07:58.330Z,1009.71
2018-07-30T02:08:58.332Z,1009.72
2018-07-30T02:09:58.332Z,1009.72
2018-07-30T02:10:58.333Z,1009.73
2018-07-30T02:11:58.329Z,1009.71
2018-07-30T02:12:58.330Z,1009.72
2018-07-30T02:13:58.335Z,1009.68
2018-07-30T02:14:58.335Z,1009.65
2018-07-30T02:15:58.332Z,1009.68
2018-07-30T02:16:58.333Z,1009.69
2018-07-30T02:17:58.335Z,1009.70
2018-07-30T02:18:58.335Z,1009.68
2018-07-30T02:19:58.340Z,1009.71
2018-07-30T02:20:58.342Z,1009.69
2018-07-30T02:21:58.342Z,1009.75
2018-07-30T02:22:58.342Z,1009.73
2018-07-30T02:23:58.343Z,1009.72
2018-07-30T02:24:58.338Z,1009.70
2018-07-30T02:25:58.341Z,1009.72
2018-07-30T02:26:58.338Z,1009.74
2018-07-30T02:27:58.344Z,1009.74
2018-07-30T02:28:58.345Z,1009.74
2018-07-30T02:29:58.342Z,1009.74
2018-07-30T02:30:58.342Z,1009.70
2018-07-30T02:31:58.349Z,1009.74
2018-07-30T02:32:58.354Z,1009.76
2018-07-30T02:33:58.348Z,1009.75
2018-07-30T02:34:58.350Z,1009.72
2018-07-30T02:35:58.346Z,1009.75
2018-07-30T02:36:58.346Z,1009.78
2018-07-30T02:37:58.348Z,1009.78
2018-07-30T02:38:58.347Z,1009.75
2018-07-30T02:39:58.354Z,1009.76
2018-07-30T02:40:58.353Z,1009.77
2018-07-30T02:41:58.353Z,1009.80
2018-07-30T02:42:58.352Z,1009.76
2018-07-30T02:43:58.349Z,1009.77
2018-07-30T02:44:58.350Z,1009.79
2018-07-30T02:45:58.359Z,1009.72
2018-07-30T02:46:58.362Z,1009.75
2018-07-30T02:47:58.352Z,1009.74
2018-07-30T02:48:58.352Z,1009.76
2018-07-30T02:49:58.353Z,1009.76
2018-07-30T02:50:58.354Z,1009.78
2018-07-30T02:51:58.357Z,1009.81
2018-07-30T02:52:58.358Z,1009.78
2018-07-30T02:53:58.359Z,1009.78
2018-07-30T02:54:58.359Z,1009.73
2018-07-30T02:55:58.356Z,1009.71
2018-07-30T02:56:58.356Z,1009.71
2018-07-30T02:57:58.358Z,1009.77
2018-07-30T02:58:58.355Z,1009.82
2018-07-30T02:59:58.360Z,1009.83
2018-07-30T03:00:58.361Z,1009.86
2018-07-30T03:01:58.364Z,1009.82
2018-07-30T03:02:58.358Z,1009.84
2018-07-30T03:03:58.363Z,1009.85
2018-07-30T03:04:58.362Z,1009.86
2018-07-30T03:05:58.363Z,1009.89
2018-07-30T03:06:58.363Z,1009.91
2018-07-30T03:07:58.358Z,1009.94
2018-07-30T03:08:58.360Z,1009.94
2018-07-30T03:09:58.360Z,1009.93
2018-07-30T03:10:58.359Z,1009.92
2018-07-30T03:11:58.364Z,1009.94
2018-07-30T03:12:58.366Z,1009.95
2018-07-30T03:13:58.367Z,1009.96
2018-07-30T03:14:58.370Z,1009.95
2018-07-30T03:15:58.360Z,1010.00
2018-07-30T03:16:58.362Z,1010.01
2018-07-30T03:17:58.367Z,1009.99
2018-07-30T03:18:58.367Z,1010.01
2018-07-30T03:19:58.362Z,1009.97
2018-07-30T03:20:58.363Z,1009.94
2018-07-30T03:21:58.362Z,1009.98
2018-07-30T03:22:58.362Z,1009.98
2018-07-30T03:23:58.366Z,1010.04
2018-07-30T03:24:58.368Z,1010.01
2018-07-30T03:25:58.368Z,1010.00
2018-07-30T03:26:58.367Z,1010.04
2018-07-30T03:27:58.363Z,1009.99
2018-07-30T03:28:58.364Z,1010.03
2018-07-30T03:29:58.365Z,1010.06
2018-07-30T03:30:58.364Z,1010.04
2018-07-30T03:31:58.370Z,1010.07
2018-07-30T03:32:58.370Z,1010.09
2018-07-30T03:33:58.366Z,1010.11
2018-07-30T03:34:58.365Z,1010.11
2018-07-30T03:35:58.371Z,1010.09
2018-07-30T03:36:58.373Z,1010.11
2018-07-30T03:37:58.371Z,1010.18
2018-07-30T03:38:58.374Z,1010.14
2018-07-30T03:39:58.366Z,1010.13
2018-07-30T03:40:58.366Z,1010.20
2018-07-30T03:41:58.366Z,1010.19
2018-07-30T03:42:58.366Z,1010.21
2018-07-30T03:43:58.370Z,1010.21
2018-07-30T03:44:58.372Z,1010.15
2018-07-30T03:45:58.372Z,1010.22
2018-07-30T03:46:58.372Z,1010.18
2018-07-30T03:47:58.405Z,1010.19
2018-07-30T03:48:58.367Z,1010.17
2018-07-30T03:49:58.373Z,1010.16
2018-07-30T03:50:58.372Z,1010.17
2018-07-30T03:51:58.367Z,1010.21
2018-07-30T03:52:58.370Z,1010.18
2018-07-30T03:53:58.369Z,1010.21
2018-07-30T03:54:58.367Z,1010.19
2018-07-30T03:55:58.371Z,1010.22
2018-07-30T03:56:58.375Z,1010.21
2018-07-30T03:57:58.376Z,1010.22
2018-07-30T03:58:58.374Z,1010.22
2018-07-30T03:59:58.443Z,1010.21
2018-07-30T04:00:58.371Z,1010.20
2018-07-30T04:01:58.369Z,1010.21
2018-07-30T04:02:58.418Z,1010.22
2018-07-30T04:03:58.374Z,1010.23
2018-07-30T04:04:58.376Z,1010.22
2018-07-30T04:05:58.372Z,1010.20
2018-07-30T04:06:58.368Z,1010.19
2018-07-30T04:07:58.415Z,1010.21
2018-07-30T04:08:58.375Z,1010.18
2018-07-30T04:09:58.378Z,1010.22
2018-07-30T04:10:58.373Z,1010.17
2018-07-30T04:11:58.370Z,1010.22
2018-07-30T04:12:58.370Z,1010.24
2018-07-30T04:13:58.370Z,1010.24
2018-07-30T04:14:58.370Z,1010.21
2018-07-30T04:15:58.375Z,1010.22
2018-07-30T04:16:58.375Z,1010.24
2018-07-30T04:17:58.375Z,1010.23
2018-07-30T04:18:58.375Z,1010.27
2018-07-30T04:19:58.372Z,1010.25
2018-07-30T04:20:58.373Z,1010.31
2018-07-30T04:21:58.376Z,1010.29
2018-07-30T04:22:58.376Z,1010.33
2018-07-30T04:23:58.372Z,1010.36
2018-07-30T04:24:58.372Z,1010.39
2018-07-30T04:25:58.373Z,1010.38
2018-07-30T04:26:58.373Z,1010.39
2018-07-30T04:27:58.379Z,1010.40
2018-07-30T04:28:58.381Z,1010.42
2018-07-30T04:29:58.380Z,1010.40
2018-07-30T04:30:58.379Z,1010.43
2018-07-30T04:31:58.375Z,1010.48
2018-07-30T04:32:58.375Z,1010.47
2018-07-30T04:33:58.377Z,1010.45
2018-07-30T04:34:58.376Z,1010.45
2018-07-30T04:35:58.382Z,1010.44
2018-07-30T04:36:58.381Z,1010.43
2018-07-30T04:37:58.378Z,1010.40
2018-07-30T04:38:58.378Z,1010.42
2018-07-30T04:39:58.383Z,1010.36
2018-07-30T04:40:58.384Z,1010.43
2018-07-30T04:41:58.385Z,1010.42
2018-07-30T04:42:58.384Z,1010.44
2018-07-30T04:43:58.380Z,1010.46
2018-07-30T04:44:58.382Z,1010.49
2018-07-30T04:45:58.383Z,1010.54
2018-07-30T04:46:58.382Z,1010.51
2018-07-30T04:47:58.389Z,1010.55
2018-07-30T04:48:58.390Z,1010.53
2018-07-30T04:49:58.389Z,1010.56
2018-07-30T04:50:58.389Z,1010.53
2018-07-30T04:51:58.385Z,1010.64
2018-07-30T04:52:58.389Z,1010.65
2018-07-30T04:53:58.397Z,1010.69
2018-07-30T04:54:58.393Z,1010.68
2018-07-30T04:55:58.391Z,1010.74
2018-07-30T04:56:58.400Z,1010.72
2018-07-30T04:57:58.396Z,1010.74
2018-07-30T04:58:58.396Z,1010.75
2018-07-30T04:59:58.401Z,1010.92
2018-07-30T05:00:58.405Z,1010.93
2018-07-30T05:01:58.407Z,1010.91
2018-07-30T05:02:58.407Z,1010.92
2018-07-30T05:03:58.406Z,1011.00
2018-07-30T05:04:58.409Z,1011.00
2018-07-30T05:05:58.413Z,1010.98
2018-07-30T05:06:58.412Z,1011.17
2018-07-30T05:07:58.418Z,1011.00
2018-07-30T05:08:58.423Z,1010.85
2018-07-30T05:09:58.421Z,1010.82
2018-07-30T05:10:58.423Z,1010.98
2018-07-30T05:11:58.480Z,1011.01
2018-07-30T05:12:58.437Z,1011.21
2018-07-30T05:13:58.439Z,1010.86
2018-07-30T05:14:58.441Z,1010.85
2018-07-30T05:15:58.441Z,1010.92
2018-07-30T05:16:58.443Z,1010.84
2018-07-30T05:17:58.447Z,1010.80
2018-07-30T05:18:58.451Z,1010.84
2018-07-30T05:19:58.459Z,1010.83
2018-07-30T05:20:58.463Z,1010.76
2018-07-30T05:21:58.466Z,1010.85
2018-07-30T05:22:58.470Z,1010.94
2018-07-30T05:23:58.468Z,1011.20
2018-07-30T05:24:58.472Z,1010.78
2018-07-30T05:25:58.483Z,1011.28
2018-07-30T05:26:58.486Z,1011.18
2018-07-30T05:27:58.487Z,1010.79
2018-07-30T05:28:58.488Z,1010.84
2018-07-30T05:29:58.490Z,1010.76
2018-07-30T05:30:58.494Z,1010.77
2018-07-30T05:31:58.532Z,1010.81
2018-07-30T05:32:58.507Z,1010.80
2018-07-30T05:33:58.510Z,1010.90
2018-07-30T05:34:58.512Z,1010.89
2018-07-30T05:35:58.513Z,1010.84
2018-07-30T05:36:58.515Z,1011.27
2018-07-30T05:37:58.519Z,1011.03
2018-07-30T05:38:58.523Z,1010.89
2018-07-30T05:39:58.531Z,1010.95
2018-07-30T05:40:58.535Z,1010.93
2018-07-30T05:41:58.536Z,1010.89
2018-07-30T05:42:58.540Z,1010.91
2018-07-30T05:43:58.545Z,1010.86
2018-07-30T05:44:58.550Z,1010.87
2018-07-30T05:45:58.552Z,1010.87
2018-07-30T05:46:58.555Z,1010.85
2018-07-30T05:47:58.556Z,1010.86
2018-07-30T05:48:58.558Z,1010.88
2018-07-30T05:49:58.582Z,1010.85
2018-07-30T05:50:58.564Z,1010.85
2018-07-30T05:51:58.572Z,1010.85
2018-07-30T05:52:58.581Z,1010.84
2018-07-30T05:53:58.580Z,1010.87
2018-07-30T05:54:58.585Z,1010.86
2018-07-30T05:55:58.586Z,1010.89
2018-07-30T05:56:58.586Z,1010.92
2018-07-30T05:57:58.596Z,1010.94
2018-07-30T05:58:58.598Z,1010.95
2018-07-30T05:59:58.597Z,1010.93
2018-07-30T06:00:58.601Z,1010.96
2018-07-30T06:01:58.609Z,1010.94
2018-07-30T06:02:58.607Z,1010.97
2018-07-30T06:03:58.616Z,1011.02
2018-07-30T06:04:58.619Z,1010.99
2018-07-30T06:05:58.623Z,1011.01
2018-07-30T06:06:58.626Z,1010.99
2018-07-30T06:07:58.625Z,1011.04
2018-07-30T06:08:58.629Z,1011.00
2018-07-30T06:09:58.633Z,1010.96
2018-07-30T06:10:58.637Z,1010.96
2018-07-30T06:11:58.645Z,1010.96
2018-07-30T06:12:58.650Z,1010.99
2018-07-30T06:13:58.650Z,1010.95
2018-07-30T06:14:58.652Z,1011.54
2018-07-30T06:15:58.662Z,1010.99
2018-07-30T06:16:58.668Z,1011.04
2018-07-30T06:17:58.672Z,1011.60
2018-07-30T06:18:58.670Z,1011.15
2018-07-30T06:19:58.671Z,1011.20
2018-07-30T06:20:58.708Z,1011.23
2018-07-30T06:21:58.680Z,1011.12
2018-07-30T06:22:58.683Z,1011.15
2018-07-30T06:23:58.692Z,1011.18
2018-07-30T06:24:58.701Z,1011.19
2018-07-30T06:25:58.702Z,1011.24
2018-07-30T06:26:58.706Z,1011.17
2018-07-30T06:27:58.706Z,1011.21
2018-07-30T06:28:58.714Z,1011.27
2018-07-30T06:29:58.722Z,1011.26
2018-07-30T06:30:58.730Z,1011.28
2018-07-30T06:31:58.756Z,1011.28
2018-07-30T06:32:58.732Z,1011.29
2018-07-30T06:33:58.736Z,1011.29
2018-07-30T06:34:58.739Z,1011.28
2018-07-30T06:35:58.750Z,1011.26
2018-07-30T06:36:58.755Z,1011.23
2018-07-30T06:37:58.760Z,1011.24
2018-07-30T06:38:58.767Z,1011.21
2018-07-30T06:39:58.765Z,1011.22
2018-07-30T06:40:58.770Z,1011.22
2018-07-30T06:41:58.775Z,1011.22
2018-07-30T06:42:58.782Z,1011.20
2018-07-30T06:43:58.790Z,1011.24
2018-07-30T06:44:58.796Z,1011.31
2018-07-30T06:45:58.795Z,1011.34
2018-07-30T06:46:58.799Z,1011.29
2018-07-30T06:47:58.829Z,1011.30
2018-07-30T06:48:58.815Z,1011.28
2018-07-30T06:49:58.818Z,1011.28
2018-07-30T06:50:58.823Z,1011.30
2018-07-30T06:51:58.823Z,1011.34
2018-07-30T06:52:58.828Z,1011.35
2018-07-30T06:53:58.834Z,1011.34
2018-07-30T06:54:58.837Z,1011.35
2018-07-30T06:55:58.850Z,1011.35
2018-07-30T06:56:58.853Z,1011.36
2018-07-30T06:57:58.858Z,1011.38
2018-07-30T06:58:58.863Z,1011.41
2018-07-30T06:59:58.864Z,1011.35
2018-07-30T07:00:58.873Z,1011.40
2018-07-30T07:01:58.886Z,1011.43
2018-07-30T07:02:58.882Z,1011.45
2018-07-30T07:03:58.882Z,1011.46
2018-07-30T07:04:58.887Z,1011.50
2018-07-30T07:05:58.892Z,1011.52
2018-07-30T07:06:58.896Z,1011.48
2018-07-30T07:07:58.905Z,1011.53
2018-07-30T07:08:58.912Z,1011.59
2018-07-30T07:09:58.920Z,1011.55
2018-07-30T07:10:58.995Z,1011.58
2018-07-30T07:11:58.921Z,1011.74
2018-07-30T07:12:58.927Z,1011.68
2018-07-30T07:13:58.933Z,1011.68
2018-07-30T07:14:58.937Z,1011.68
2018-07-30T07:15:58.946Z,1011.69
2018-07-30T07:16:59.028Z,1011.69
2018-07-30T07:17:58.952Z,1011.76
2018-07-30T07:18:58.958Z,1011.97
2018-07-30T07:19:58.971Z,1011.79
2018-07-30T07:20:58.974Z,1011.77
2018-07-30T07:21:59.046Z,1011.79
2018-07-30T07:22:58.983Z,1011.79
2018-07-30T07:23:58.986Z,1011.77
2018-07-30T07:24:58.991Z,1011.73
2018-07-30T07:25:58.997Z,1011.76
2018-07-30T07:26:59.080Z,1011.72
2018-07-30T07:27:59.063Z,1011.75
2018-07-30T07:28:59.018Z,1011.70
2018-07-30T07:29:59.025Z,1011.73
2018-07-30T07:30:59.036Z,1011.71
2018-07-30T07:31:59.035Z,1011.75
2018-07-30T07:32:59.037Z,1011.78
2018-07-30T07:33:59.048Z,1011.98
2018-07-30T07:34:59.105Z,1011.83
2018-07-30T07:35:59.057Z,1011.82
2018-07-30T07:36:59.063Z,1011.92
2018-07-30T07:37:59.068Z,1011.89
2018-07-30T07:38:59.075Z,1011.82
2018-07-30T07:39:59.086Z,1011.76
2018-07-30T07:40:59.093Z,1011.79
2018-07-30T07:41:59.101Z,1011.85
2018-07-30T07:42:59.105Z,1011.83
2018-07-30T07:43:59.106Z,1012.17
2018-07-30T07:44:59.143Z,1012.52
2018-07-30T07:45:59.165Z,1012.09
2018-07-30T07:46:59.126Z,1012.08
2018-07-30T07:47:59.138Z,1011.61
2018-07-30T07:48:59.145Z,1011.57
2018-07-30T07:49:59.171Z,1011.61
2018-07-30T07:50:59.365Z,1011.56
2018-07-30T07:51:59.168Z,1011.57
2018-07-30T07:52:59.175Z,1011.52
2018-07-30T07:53:59.188Z,1011.58
2018-07-30T07:54:59.190Z,1011.61
2018-07-30T07:55:59.193Z,1011.64
2018-07-30T07:56:59.201Z,1011.85
2018-07-30T07:57:59.209Z,1011.64
2018-07-30T07:58:59.217Z,1011.87
2018-07-30T07:59:59.230Z,1011.98
2018-07-30T08:00:59.239Z,1011.71
2018-07-30T08:01:59.246Z,1011.70
2018-07-30T08:02:59.253Z,1012.01
2018-07-30T08:03:59.333Z,1011.99
2018-07-30T08:04:59.267Z,1011.92
2018-07-30T08:05:59.281Z,1011.80
2018-07-30T08:06:59.290Z,1011.85
2018-07-30T08:07:59.297Z,1012.13
2018-07-30T08:08:59.318Z,1011.87
2018-07-30T08:09:59.317Z,1012.08
2018-07-30T08:10:59.354Z,1012.04
2018-07-30T08:11:59.345Z,1012.00
2018-07-30T08:12:59.355Z,1011.76
2018-07-30T08:13:59.367Z,1012.17
2018-07-30T08:14:59.378Z,1012.04
2018-07-30T08:15:59.385Z,1012.16
2018-07-30T08:16:59.399Z,1011.80
2018-07-30T08:17:59.412Z,1011.92
2018-07-30T08:18:59.424Z,1011.94
2018-07-30T08:19:59.441Z,1012.23
2018-07-30T08:20:59.455Z,1012.14
2018-07-30T08:21:59.464Z,1011.87
2018-07-30T08:22:59.477Z,1012.08
2018-07-30T08:23:59.541Z,1011.86
2018-07-30T08:24:59.509Z,1011.84
2018-07-30T08:25:59.525Z,1011.87
2018-07-30T08:26:59.537Z,1011.82
2018-07-30T08:27:59.546Z,1011.93
2018-07-30T08:28:59.605Z,1011.77
2018-07-30T08:29:59.575Z,1011.72
2018-07-30T08:30:59.587Z,1012.05
2018-07-30T08:31:59.605Z,1012.14
2018-07-30T08:32:59.622Z,1011.97
2018-07-30T08:33:59.634Z,1011.80
2018-07-30T08:34:59.646Z,1011.80
2018-07-30T08:35:59.654Z,1011.95
2018-07-30T08:36:59.674Z,1012.09
2018-07-30T08:37:59.687Z,1011.97
2018-07-30T08:38:59.700Z,1011.98
2018-07-30T08:39:59.708Z,1012.18
2018-07-30T08:40:59.720Z,1012.20
2018-07-30T08:41:59.735Z,1012.23
2018-07-30T08:42:59.749Z,1012.06
2018-07-30T08:43:59.765Z,1012.05
2018-07-30T08:44:59.778Z,1012.27
2018-07-30T08:45:59.793Z,1012.14
2018-07-30T08:46:59.808Z,1012.05
2018-07-30T08:47:59.814Z,1011.98
2018-07-30T08:48:59.829Z,1012.16
2018-07-30T08:49:59.845Z,1012.01
2018-07-30T08:50:59.856Z,1012.15
2018-07-30T08:51:59.875Z,1012.09
2018-07-30T08:52:59.890Z,1012.26
2018-07-30T08:53:59.898Z,1012.22
2018-07-30T08:54:59.915Z,1012.30
2018-07-30T08:55:59.934Z,1012.12
2018-07-30T08:56:59.945Z,1011.98
2018-07-30T08:57:59.959Z,1011.98
2018-07-30T08:58:59.973Z,1012.11
2018-07-30T08:59:59.985Z,1012.00
2018-07-30T09:01:00.000Z,1011.97
2018-07-30T09:02:00.013Z,1012.17
2018-07-30T09:03:00.027Z,1012.05
2018-07-30T09:04:00.046Z,1012.22
2018-07-30T09:05:00.063Z,1012.05
2018-07-30T09:06:00.079Z,1012.23
2018-07-30T09:07:00.096Z,1012.28
2018-07-30T09:08:00.103Z,1012.20
2018-07-30T09:09:00.117Z,1012.30
2018-07-30T09:10:00.137Z,1012.30
2018-07-30T09:11:00.152Z,1012.28
2018-07-30T09:12:00.165Z,1012.30
2018-07-30T09:13:00.178Z,1012.28
2018-07-30T09:14:00.196Z,1012.26
2018-07-30T09:15:00.210Z,1012.23
2018-07-30T09:16:00.234Z,1012.28
2018-07-30T09:17:00.247Z,1011.96
2018-07-30T09:18:00.264Z,1012.22
2018-07-30T09:19:00.281Z,1012.17
2018-07-30T09:20:00.292Z,1012.15
2018-07-30T09:21:00.310Z,1012.19
2018-07-30T09:22:00.327Z,1012.05
2018-07-30T09:23:00.343Z,1012.22
2018-07-30T09:24:00.365Z,1012.18
2018-07-30T09:25:00.383Z,1011.99
2018-07-30T09:26:00.395Z,1012.02
2018-07-30T09:27:00.412Z,1012.13
2018-07-30T09:28:00.434Z,1012.13
2018-07-30T09:29:00.454Z,1012.16
2018-07-30T09:30:00.471Z,1012.18
2018-07-30T09:31:00.485Z,1012.17
2018-07-30T09:32:00.495Z,1012.18
2018-07-30T09:33:00.606Z,1012.18
2018-07-30T09:34:00.534Z,1012.15
2018-07-30T09:35:00.550Z,1012.19
2018-07-30T09:36:00.569Z,1012.19
2018-07-30T09:37:00.586Z,1012.20
2018-07-30T09:38:00.602Z,1012.16
2018-07-30T09:39:00.619Z,1012.19
2018-07-30T09:40:00.633Z,1012.14
2018-07-30T09:41:00.650Z,1012.21
2018-07-30T09:42:00.671Z,1012.17
2018-07-30T09:43:00.689Z,1012.16
2018-07-30T09:44:00.703Z,1012.12
2018-07-30T09:45:00.794Z,1012.18
2018-07-30T09:46:00.740Z,1012.16
2018-07-30T09:47:00.757Z,1012.16
2018-07-30T09:48:00.781Z,1012.19
2018-07-30T09:49:00.803Z,1012.13
2018-07-30T09:50:00.818Z,1012.16
2018-07-30T09:51:00.838Z,1012.11
2018-07-30T09:52:00.850Z,1012.08
2018-07-30T09:53:00.910Z,1012.08
2018-07-30T09:54:00.888Z,1012.11
2018-07-30T09:55:00.904Z,1012.09
2018-07-30T09:56:00.928Z,1012.08
2018-07-30T09:57:00.946Z,1012.09
2018-07-30T09:58:00.960Z,1012.06
2018-07-30T09:59:00.978Z,1012.07
2018-07-30T10:00:01.001Z,1012.15
2018-07-30T10:01:01.025Z,1012.06
2018-07-30T10:02:01.044Z,1012.11
2018-07-30T10:03:01.059Z,1012.07
2018-07-30T10:04:01.074Z,1012.08
2018-07-30T10:05:01.092Z,1012.11
2018-07-30T10:06:01.109Z,1012.02
2018-07-30T10:07:01.127Z,1012.04
2018-07-30T10:08:01.150Z,1012.03
2018-07-30T10:09:01.170Z,1012.05
2018-07-30T10:10:01.187Z,1012.07
2018-07-30T10:11:01.204Z,1012.01
2018-07-30T10:12:01.219Z,1012.06
2018-07-30T10:13:01.239Z,1012.01
2018-07-30T10:14:01.260Z,1012.09
2018-07-30T10:15:01.285Z,1012.03
2018-07-30T10:16:01.296Z,1012.05
2018-07-30T10:17:01.313Z,1012.03
2018-07-30T10:18:01.359Z,1012.01
2018-07-30T10:19:01.350Z,1011.94
2018-07-30T10:20:01.373Z,1011.94
2018-07-30T10:21:01.391Z,1011.89
2018-07-30T10:22:01.410Z,1011.87
2018-07-30T10:23:01.428Z,1011.87
2018-07-30T10:24:01.443Z,1011.89
2018-07-30T10:25:01.463Z,1011.92
2018-07-30T10:26:01.479Z,1011.90
2018-07-30T10:27:01.497Z,1011.93
2018-07-30T10:28:01.520Z,1011.90
2018-07-30T10:29:01.540Z,1011.89
2018-07-30T10:30:01.557Z,1011.83
2018-07-30T10:31:01.573Z,1011.87
2018-07-30T10:32:01.596Z,1011.83
2018-07-30T10:33:01.616Z,1011.90
2018-07-30T10:34:01.636Z,1011.80
2018-07-30T10:35:01.657Z,1011.79
2018-07-30T10:36:01.669Z,1011.78
2018-07-30T10:37:01.688Z,1011.56
2018-07-30T10:38:01.773Z,1011.79
2018-07-30T10:39:01.731Z,1011.67
2018-07-30T10:40:01.745Z,1011.73
2018-07-30T10:41:01.764Z,1011.69
2018-07-30T10:42:01.783Z,1011.65
2018-07-30T10:43:01.801Z,1011.71
2018-07-30T10:44:01.830Z,1011.72
2018-07-30T10:45:01.849Z,1011.75
2018-07-30T10:46:01.858Z,1011.75
2018-07-30T10:47:01.876Z,1011.71
2018-07-30T10:48:01.900Z,1011.67
2018-07-30T10:49:01.919Z,1011.67
2018-07-30T10:50:01.940Z,1011.76
2018-07-30T10:51:01.954Z,1011.74
2018-07-30T10:52:01.969Z,1011.74
2018-07-30T10:53:01.987Z,1011.75
2018-07-30T10:54:02.005Z,1011.77
2018-07-30T10:55:02.023Z,1011.70
2018-07-30T10:56:02.050Z,1011.67
2018-07-30T10:57:02.064Z,1011.64
2018-07-30T10:58:02.084Z,1011.65
2018-07-30T10:59:02.101Z,1011.69
2018-07-30T11:00:02.115Z,1011.72
2018-07-30T11:01:02.244Z,1011.71
2018-07-30T11:02:02.156Z,1011.63
2018-07-30T11:03:02.173Z,1011.69
2018-07-30T11:04:02.186Z,1011.67
2018-07-30T11:05:02.205Z,1011.60
2018-07-30T11:06:02.225Z,1011.57
2018-07-30T11:07:02.240Z,1011.55
2018-07-30T11:08:02.263Z,1011.55
2018-07-30T11:09:02.280Z,1011.49
2018-07-30T11:10:02.300Z,1011.51
2018-07-30T11:11:02.316Z,1011.45
2018-07-30T11:12:02.332Z,1011.50
2018-07-30T11:13:02.348Z,1011.51
2018-07-30T11:14:02.366Z,1011.47
2018-07-30T11:15:02.389Z,1011.47
2018-07-30T11:16:02.406Z,1011.56
2018-07-30T11:17:02.422Z,1011.53
2018-07-30T11:18:02.436Z,1011.53
2018-07-30T11:19:02.452Z,1011.53
2018-07-30T11:20:02.492Z,1011.17
2018-07-30T11:21:02.492Z,1011.49
2018-07-30T11:22:02.510Z,1011.22
2018-07-30T11:23:02.526Z,1011.40
2018-07-30T11:24:02.541Z,1011.37
2018-07-30T11:25:02.559Z,1011.33
2018-07-30T11:26:02.578Z,1011.25
2018-07-30T11:27:02.591Z,1011.19
2018-07-30T11:28:02.644Z,1011.23
2018-07-30T11:29:02.627Z,1011.16
2018-07-30T11:30:02.644Z,1011.12
2018-07-30T11:31:02.661Z,1011.09
2018-07-30T11:32:02.671Z,1011.03
2018-07-30T11:33:02.687Z,1010.95
2018-07-30T11:34:02.710Z,1010.95
2018-07-30T11:35:02.724Z,1010.99
2018-07-30T11:36:02.734Z,1011.05
2018-07-30T11:37:02.749Z,1011.04
2018-07-30T11:38:02.761Z,1010.98
2018-07-30T11:39:02.776Z,1010.99
2018-07-30T11:40:02.818Z,1011.00
2018-07-30T11:41:02.808Z,1010.97
2018-07-30T11:42:02.821Z,1010.94
2018-07-30T11:43:02.913Z,1010.92
2018-07-30T11:44:02.842Z,1010.88
2018-07-30T11:45:02.855Z,1010.91
2018-07-30T11:46:02.866Z,1010.82
2018-07-30T11:47:02.878Z,1010.80
2018-07-30T11:48:02.893Z,1010.80
2018-07-30T11:49:02.906Z,1010.79
2018-07-30T11:50:02.912Z,1010.79
2018-07-30T11:51:02.923Z,1010.78
2018-07-30T11:52:02.940Z,1010.71
2018-07-30T11:53:02.952Z,1010.79
2018-07-30T11:54:03.023Z,1010.77
2018-07-30T11:55:02.972Z,1010.75
2018-07-30T11:56:02.977Z,1010.74
2018-07-30T11:57:03.028Z,1010.72
2018-07-30T11:58:02.998Z,1010.68
2018-07-30T11:59:03.011Z,1010.75
2018-07-30T12:00:03.023Z,1010.70
2018-07-30T12:01:03.077Z,1010.73
2018-07-30T12:02:03.044Z,1010.75
2018-07-30T12:03:03.051Z,1010.74
2018-07-30T12:04:03.057Z,1010.72
2018-07-30T12:05:03.067Z,1010.70
2018-07-30T12:06:03.083Z,1010.69